Používaním stránok prevádzkovaných PROFIPILOT, s.r.o. súhlasíte s používaním cookies, ktoré nám pomáhajú zabezpečiť lepšie služby.OK

Briefing

MAPA | METAR | TAF | METEO SITUÁCIA
MAPA | METAR | TAF | METEO SITUÁCIA

Predpoveď na dnes

NOC: Jasno až polojasno. Najnižšia nočná teplota 14 až 9, v dolinách a kotlinách miestami okolo 7 st. Bezvetrie alebo slabý vietor. DEŇ: Jasno až polojasno. Veľmi teplo! Najvyššia denná teplota 26 až 31, na severe okolo 24 st. Teplota na horách vo výške 1500 m okolo 16 st. Slabý, miestami prechodne južný až juhozápadný vietor do 5 m/s (20 km/h). Predpokladané množstvo zrážok: NOC: bez zrážok DEŇ: bez zrážok

SHMÚ, OMPaV, MM 28.5.2017 20:35 LSEČ

MAPA | METAR | TAF | METEO SITUÁCIA

TAF - Letisková predpoveď

29.05.2017 - 02:00 UTC

TAF LZSL 290200Z 2903/2912 VRB02KT CAVOK
     BECMG 2907/2909 17005KT=
 TAF LZZI 290200Z 2903/2912 VRB02KT CAVOK
     BECMG 2907/2909 22006KT
     PROB40 TEMPO 2910/2912 9999 FEW050 SCT100=
 

28.05.2017 - 05:00 UTC (Včera)

TAF LZIB 280500Z 2806/2906 04005KT CAVOK
     BECMG 2808/2810 13005KT
     TEMPO 2808/2816 16010KT=
 TAF LZKZ 280500Z 2806/2906 05006KT CAVOK
     BECMG 2808/2810 11006KT
     BECMG 2814/2816 23005KT=
 TAF LZTT 280500Z 2806/2906 27004KT CAVOK
     BECMG 2807/2809 11007KT
     BECMG 2818/2820 26005KT=
 

28.05.2017 - 02:00 UTC (Včera)

TAF LZSL 280200Z 2803/2812 VRB02KT CAVOK
     PROB30 TEMPO 2803/2805 3000 BR NSC=
 TAF LZZI 280200Z 2803/2812 VRB02KT CAVOK
     PROB30 TEMPO 2803/2805 2000 BR FEW001=
 
MAPA | METAR | TAF | METEO SITUÁCIA

METAR - Letisková meteo správa

Letisková meteorologická správa METAR

Meteorologické informácie z ďalších profesionálnych meteorologických staníc SHMÚ zobrazené v tvare zodpovedajúcom pravidlám kódovania správ METAR sú uvedené v položke „METSYN Informácie o správe METAR

29.05.2017 - 01:30 UTC

METAR LZIB 290130Z 02004KT CAVOK 12/08 Q1020=
 METAR LZKZ 290130Z VRB01KT CAVOK 09/07 Q1021=
 METAR LZPP 290130Z AUTO 35005KT 9999 NCD 08/06 Q1020=
 METAR LZSL 290130Z 00000KT CAVOK 08/07 Q1022=
 METAR LZTT 290130Z 24004KT CAVOK 08/06 Q1022=
 METAR LZZI 290130Z 12002KT CAVOK 09/08 Q1021=
 

29.05.2017 - 01:00 UTC

METAR LZIB 290100Z 05005KT CAVOK 11/08 Q1020=
 METAR LZKZ 290100Z VRB01KT CAVOK 10/08 Q1021=
 METAR LZPP 290100Z AUTO 35005KT 9999 NCD 07/06 Q1020=
 METAR LZSL 290100Z 00000KT CAVOK 09/07 Q1022=
 METAR LZTT 290100Z 26003KT CAVOK 08/06 Q1022=
 METAR LZZI 290100Z VRB02KT CAVOK 09/07 Q1021=
 
Údaje nie sú momentálne k dispozícii
načítavam...